createdAt,value
2023-05-05T00:02:23.118Z,101466.69
2023-05-05T00:04:49.543Z,101467.91
2023-05-05T00:07:15.904Z,101463.78
2023-05-05T00:09:42.809Z,101474.69
2023-05-05T00:12:09.283Z,101462.34
2023-05-05T00:14:35.610Z,101465.50
2023-05-05T00:17:02.056Z,101468.09
2023-05-05T00:19:28.426Z,101463.59
2023-05-05T00:21:54.797Z,101460.38
2023-05-05T00:24:21.188Z,101463.19
2023-05-05T00:26:47.612Z,101461.00
2023-05-05T00:29:14.044Z,101456.38
2023-05-05T00:31:40.664Z,101457.81
2023-05-05T00:34:07.182Z,101448.56
2023-05-05T00:36:33.572Z,101450.41
2023-05-05T00:39:00.067Z,101437.84
2023-05-05T00:41:26.692Z,101442.53
2023-05-05T00:43:53.116Z,101446.91
2023-05-05T00:46:25.154Z,101466.78
2023-05-05T00:48:51.875Z,101471.66
2023-05-05T00:51:20.311Z,101473.19
2023-05-05T00:53:47.931Z,101478.97
2023-05-05T00:56:16.519Z,101484.00
2023-05-05T00:58:43.953Z,101475.50
2023-05-05T01:01:11.679Z,101473.25
2023-05-05T01:03:41.661Z,101468.44
2023-05-05T01:06:26.263Z,101460.13
2023-05-05T01:09:02.013Z,101466.00
2023-05-05T01:11:57.663Z,101465.03
2023-05-05T01:14:36.897Z,101455.03
2023-05-05T01:17:15.892Z,101455.94
2023-05-05T01:20:12.307Z,101464.97
2023-05-05T01:22:45.144Z,101457.16
2023-05-05T01:25:26.996Z,101467.06
2023-05-05T01:28:11.283Z,101471.50
2023-05-05T01:31:03.130Z,101476.75
2023-05-05T01:33:36.809Z,101466.69
2023-05-05T01:36:13.398Z,101485.53
2023-05-05T01:38:42.249Z,101484.75
2023-05-05T01:41:22.000Z,101486.94
2023-05-05T01:43:51.018Z,101486.41
2023-05-05T01:46:19.123Z,101480.91
2023-05-05T01:48:48.060Z,101479.56
2023-05-05T01:51:17.566Z,101481.53
2023-05-05T01:53:44.225Z,101481.50
2023-05-05T01:56:12.267Z,101496.75
2023-05-05T01:58:41.662Z,101503.38
2023-05-05T02:01:09.047Z,101504.72
2023-05-05T02:03:36.217Z,101503.09
2023-05-05T02:06:03.581Z,101508.81
2023-05-05T02:08:31.426Z,101513.69
2023-05-05T02:10:58.285Z,101502.78
2023-05-05T02:13:26.169Z,101491.63
2023-05-05T02:15:53.276Z,101466.75
2023-05-05T02:18:21.128Z,101471.94
2023-05-05T02:20:47.684Z,101448.13
2023-05-05T02:23:14.134Z,101456.34
2023-05-05T02:25:43.589Z,101453.56
2023-05-05T02:28:15.168Z,101476.19
2023-05-05T02:30:42.644Z,101477.94
2023-05-05T02:33:11.004Z,101476.31
2023-05-05T02:35:42.056Z,101473.00
2023-05-05T02:38:13.861Z,101470.78
2023-05-05T02:40:42.664Z,101474.63
2023-05-05T02:43:11.878Z,101477.34
2023-05-05T02:45:38.496Z,101481.94
2023-05-05T02:48:05.269Z,101481.63
2023-05-05T02:50:32.608Z,101478.00
2023-05-05T02:53:00.268Z,101478.69
2023-05-05T02:55:38.002Z,101469.75
2023-05-05T02:58:07.897Z,101470.09
2023-05-05T03:00:41.136Z,101478.97
2023-05-05T03:03:16.656Z,101475.09
2023-05-05T03:05:55.692Z,101478.66
2023-05-05T03:08:30.040Z,101482.34
2023-05-05T03:11:06.156Z,101481.84
2023-05-05T03:13:35.834Z,101482.47
2023-05-05T03:16:06.662Z,101487.06
2023-05-05T03:18:34.395Z,101498.59
2023-05-05T03:21:08.321Z,101495.94
2023-05-05T03:23:36.198Z,101502.72
2023-05-05T03:26:02.619Z,101497.72
2023-05-05T03:28:29.189Z,101509.81
2023-05-05T03:30:56.136Z,101513.63
2023-05-05T03:33:22.538Z,101516.94
2023-05-05T03:35:48.873Z,101523.53
2023-05-05T03:38:15.330Z,101514.63
2023-05-05T03:40:44.556Z,101514.63
2023-05-05T03:43:11.477Z,101501.59
2023-05-05T03:45:38.124Z,101492.44
2023-05-05T03:48:04.966Z,101493.00
2023-05-05T03:50:31.361Z,101509.59
2023-05-05T03:52:57.726Z,101504.38
2023-05-05T03:55:24.512Z,101508.91
2023-05-05T03:57:50.884Z,101519.75
2023-05-05T04:05:33.278Z,101533.34
2023-05-05T04:10:57.392Z,101549.59
2023-05-05T04:13:24.381Z,101567.25
2023-05-05T04:15:51.071Z,101571.38
2023-05-05T04:24:38.636Z,101575.00
2023-05-05T04:33:18.723Z,101576.31
2023-05-05T04:38:51.835Z,101590.97
2023-05-05T04:41:18.255Z,101599.22
2023-05-05T04:43:44.858Z,101603.59
2023-05-05T04:48:59.694Z,101602.78
2023-05-05T04:51:27.548Z,101596.84
2023-05-05T04:53:54.039Z,101595.53
2023-05-05T04:59:01.771Z,101597.91
2023-05-05T05:01:28.359Z,101606.50
2023-05-05T05:09:44.113Z,101609.06
2023-05-05T05:12:10.571Z,101615.69
2023-05-05T05:14:38.093Z,101617.44
2023-05-05T05:17:05.216Z,101617.50
2023-05-05T05:19:31.740Z,101622.03
2023-05-05T05:38:08.274Z,101628.94
2023-05-05T05:40:36.072Z,101624.94
2023-05-05T05:43:03.194Z,101630.81
2023-05-05T05:45:29.798Z,101631.81
2023-05-05T05:47:56.396Z,101640.75
2023-05-05T05:53:05.867Z,101639.84
2023-05-05T05:55:32.319Z,101645.16
2023-05-05T05:57:58.889Z,101643.69
2023-05-05T06:00:25.419Z,101634.53
2023-05-05T06:02:51.863Z,101641.09
2023-05-05T06:05:18.313Z,101637.00
2023-05-05T06:07:44.689Z,101640.00
2023-05-05T06:10:25.199Z,101635.59
2023-05-05T06:12:53.560Z,101637.19
2023-05-05T06:15:19.986Z,101630.25
2023-05-05T06:17:46.644Z,101623.28
2023-05-05T06:20:13.936Z,101620.66
2023-05-05T06:22:40.381Z,101618.13
2023-05-05T06:25:07.348Z,101623.53
2023-05-05T06:27:33.950Z,101624.53
2023-05-05T06:30:00.676Z,101624.56
2023-05-05T06:32:27.126Z,101633.06
2023-05-05T06:34:53.614Z,101637.94
2023-05-05T06:37:20.601Z,101640.25
2023-05-05T06:39:47.218Z,101643.47
2023-05-05T06:42:13.599Z,101652.31
2023-05-05T06:44:39.990Z,101642.66
2023-05-05T06:47:06.605Z,101649.56
2023-05-05T06:49:33.377Z,101647.00
2023-05-05T06:51:59.755Z,101654.84
2023-05-05T06:54:26.159Z,101656.69
2023-05-05T06:56:52.553Z,101657.25
2023-05-05T06:59:18.920Z,101658.84
2023-05-05T07:01:45.343Z,101664.72
2023-05-05T07:04:12.668Z,101662.56
2023-05-05T07:06:39.203Z,101666.97
2023-05-05T07:09:05.952Z,101668.72
2023-05-05T07:11:32.352Z,101665.50
2023-05-05T07:13:58.770Z,101671.63
2023-05-05T07:16:26.996Z,101679.06
2023-05-05T07:18:53.450Z,101679.44
2023-05-05T07:21:19.951Z,101678.59
2023-05-05T07:23:47.681Z,101673.19
2023-05-05T07:26:15.196Z,101673.75
2023-05-05T07:28:43.088Z,101676.94
2023-05-05T07:31:09.638Z,101679.59
2023-05-05T07:33:36.065Z,101677.84
2023-05-05T07:36:02.651Z,101682.94
2023-05-05T07:38:29.067Z,101683.47
2023-05-05T07:40:55.408Z,101673.44
2023-05-05T07:43:21.842Z,101680.47
2023-05-05T07:45:48.314Z,101682.34
2023-05-05T07:48:14.737Z,101667.00
2023-05-05T07:50:41.202Z,101679.13
2023-05-05T07:53:14.452Z,101685.53
2023-05-05T07:55:41.438Z,101677.06
2023-05-05T07:58:08.643Z,101677.13
2023-05-05T08:00:35.567Z,101676.81
2023-05-05T08:03:02.087Z,101676.69
2023-05-05T08:05:28.689Z,101669.84
2023-05-05T08:07:55.065Z,101681.22
2023-05-05T08:10:24.546Z,101682.25
2023-05-05T08:12:50.986Z,101681.59
2023-05-05T08:15:17.363Z,101683.69
2023-05-05T08:17:51.594Z,101687.16
2023-05-05T08:20:19.616Z,101685.53
2023-05-05T08:22:46.607Z,101684.03
2023-05-05T08:25:14.206Z,101684.03
2023-05-05T08:27:42.169Z,101676.13
2023-05-05T08:30:09.835Z,101682.50
2023-05-05T08:32:36.289Z,101681.25
2023-05-05T08:35:03.427Z,101687.50
2023-05-05T08:37:29.888Z,101680.78
2023-05-05T08:39:57.689Z,101691.88
2023-05-05T08:42:36.079Z,101698.19
2023-05-05T08:45:04.557Z,101693.06
2023-05-05T08:47:32.272Z,101692.63
2023-05-05T08:49:59.685Z,101695.38
2023-05-05T08:52:29.269Z,101694.81
2023-05-05T08:55:06.718Z,101698.03
2023-05-05T08:57:43.882Z,101696.63
2023-05-05T09:00:12.846Z,101703.88
2023-05-05T09:02:40.535Z,101709.03
2023-05-05T09:05:07.895Z,101715.38
2023-05-05T09:07:34.805Z,101702.66
2023-05-05T09:10:04.554Z,101706.72
2023-05-05T09:12:31.764Z,101692.56
2023-05-05T09:14:59.393Z,101696.81
2023-05-05T09:17:26.444Z,101696.78
2023-05-05T09:20:07.465Z,101697.47
2023-05-05T09:22:38.725Z,101700.22
2023-05-05T09:25:13.337Z,101700.78
2023-05-05T09:27:47.767Z,101699.66
2023-05-05T09:30:23.996Z,101694.59
2023-05-05T09:32:52.816Z,101698.19
2023-05-05T09:35:20.429Z,101709.50
2023-05-05T09:37:47.062Z,101697.41
2023-05-05T09:40:15.632Z,101698.25
2023-05-05T09:42:42.313Z,101699.59
2023-05-05T09:45:17.437Z,101700.63
2023-05-05T09:47:48.094Z,101700.19
2023-05-05T09:50:19.023Z,101692.88
2023-05-05T09:52:59.769Z,101695.63
2023-05-05T09:55:26.370Z,101686.81
2023-05-05T09:57:53.224Z,101685.50
2023-05-05T10:00:20.429Z,101685.22
2023-05-05T10:02:47.072Z,101689.09
2023-05-05T10:05:15.886Z,101694.63
2023-05-05T10:07:44.293Z,101694.38
2023-05-05T10:10:13.156Z,101699.88
2023-05-05T10:12:40.770Z,101707.34
2023-05-05T10:15:09.169Z,101720.06
2023-05-05T10:20:19.109Z,101738.88
2023-05-05T10:22:53.333Z,101753.13
2023-05-05T10:25:33.433Z,101758.34
2023-05-05T10:28:01.131Z,101750.69
2023-05-05T10:30:31.945Z,101748.00
2023-05-05T10:33:31.635Z,101757.13
2023-05-05T10:36:02.321Z,101749.53
2023-05-05T10:43:56.500Z,101730.88
2023-05-05T10:46:23.617Z,101728.59
2023-05-05T10:49:20.243Z,101734.88
2023-05-05T10:51:52.413Z,101738.88
2023-05-05T10:54:39.522Z,101746.00
2023-05-05T10:57:10.784Z,101757.03
2023-05-05T10:59:37.303Z,101763.91
2023-05-05T11:02:28.022Z,101769.97
2023-05-05T11:05:17.860Z,101775.00
2023-05-05T11:07:46.479Z,101781.25
2023-05-05T11:10:15.282Z,101775.00
2023-05-05T11:12:54.582Z,101783.41
2023-05-05T11:15:23.804Z,101779.13
2023-05-05T11:17:50.306Z,101765.06
2023-05-05T11:23:05.401Z,101771.00
2023-05-05T11:25:35.314Z,101766.31
2023-05-05T11:28:08.242Z,101770.69
2023-05-05T11:30:36.358Z,101763.16
2023-05-05T11:36:06.408Z,101779.13
2023-05-05T11:38:36.467Z,101778.78
2023-05-05T11:41:12.115Z,101785.41
2023-05-05T11:43:39.776Z,101788.78
2023-05-05T11:46:12.059Z,101778.03
2023-05-05T11:48:49.277Z,101782.03
2023-05-05T11:53:59.266Z,101791.31
2023-05-05T11:56:26.096Z,101779.41
2023-05-05T11:59:09.784Z,101781.03
2023-05-05T12:01:41.012Z,101783.03
2023-05-05T12:06:43.338Z,101779.22
2023-05-05T12:09:20.232Z,101777.25
2023-05-05T12:11:50.548Z,101775.16
2023-05-05T12:14:17.082Z,101768.63
2023-05-05T12:19:29.981Z,101770.47
2023-05-05T12:21:56.833Z,101772.41
2023-05-05T12:40:47.712Z,101780.03
2023-05-05T12:43:28.295Z,101778.59
2023-05-05T12:46:13.837Z,101775.75
2023-05-05T12:48:44.456Z,101772.19
2023-05-05T12:51:17.186Z,101767.50
2023-05-05T12:53:47.588Z,101769.59
2023-05-05T12:56:52.419Z,101766.41
2023-05-05T12:59:21.365Z,101771.13
2023-05-05T13:01:51.791Z,101763.94
2023-05-05T13:04:19.507Z,101755.81
2023-05-05T13:06:48.300Z,101760.78
2023-05-05T13:09:30.375Z,101751.66
2023-05-05T13:11:56.967Z,101757.78
2023-05-05T13:14:23.553Z,101742.78
2023-05-05T13:16:49.932Z,101747.88
2023-05-05T13:19:16.399Z,101757.72
2023-05-05T13:21:42.908Z,101764.13
2023-05-05T13:24:23.434Z,101765.34
2023-05-05T13:29:45.466Z,101770.63
2023-05-05T13:32:12.045Z,101766.78
2023-05-05T13:34:39.092Z,101773.94
2023-05-05T13:37:05.795Z,101770.63
2023-05-05T13:39:32.131Z,101782.78
2023-05-05T13:41:58.513Z,101785.50
2023-05-05T13:44:24.875Z,101785.88
2023-05-05T13:46:51.283Z,101783.06
2023-05-05T13:49:19.953Z,101790.84
2023-05-05T13:51:47.078Z,101789.03
2023-05-05T13:54:14.080Z,101788.53
2023-05-05T13:56:40.718Z,101790.19
2023-05-05T13:59:07.346Z,101794.91
2023-05-05T14:01:33.818Z,101784.22
2023-05-05T14:04:03.652Z,101790.66
2023-05-05T14:06:32.400Z,101785.72
2023-05-05T14:08:58.777Z,101775.97
2023-05-05T14:11:25.097Z,101781.28
2023-05-05T14:13:51.983Z,101765.81
2023-05-05T14:16:18.818Z,101777.03
2023-05-05T14:18:45.530Z,101763.16
2023-05-05T14:21:12.130Z,101762.25
2023-05-05T14:23:38.610Z,101754.97
2023-05-05T14:26:05.371Z,101748.31
2023-05-05T14:28:31.820Z,101737.03
2023-05-05T14:30:58.236Z,101731.38
2023-05-05T14:36:07.078Z,101737.91
2023-05-05T14:47:47.605Z,101692.41
2023-05-05T14:50:14.207Z,101683.78
2023-05-05T14:52:40.885Z,101678.13
2023-05-05T14:55:08.164Z,101693.69
2023-05-05T15:00:16.989Z,101717.59
2023-05-05T15:02:43.495Z,101725.78
2023-05-05T15:24:04.795Z,101716.75
2023-05-05T16:13:19.834Z,101692.28
2023-05-05T16:15:46.495Z,101691.75
2023-05-05T16:18:12.994Z,101699.47
2023-05-05T16:20:39.481Z,101693.38
2023-05-05T16:23:06.734Z,101691.47
2023-05-05T16:38:56.555Z,101683.50
2023-05-05T16:52:31.734Z,101680.75
2023-05-05T17:00:46.574Z,101670.81
2023-05-05T17:03:13.297Z,101681.94
2023-05-05T17:08:21.709Z,101687.66
2023-05-05T17:24:11.315Z,101688.88
2023-05-05T17:26:38.797Z,101687.50
2023-05-05T17:29:05.216Z,101685.84
2023-05-05T17:31:31.572Z,101691.81
2023-05-05T17:33:57.963Z,101695.38
2023-05-05T17:39:06.264Z,101686.03
2023-05-05T17:41:32.684Z,101683.06
2023-05-05T17:43:59.454Z,101683.81
2023-05-05T17:46:26.136Z,101690.59
2023-05-05T17:48:53.677Z,101691.09
2023-05-05T17:51:20.074Z,101691.03
2023-05-05T17:53:46.494Z,101691.81
2023-05-05T17:56:13.062Z,101688.19
2023-05-05T17:58:39.518Z,101698.56
2023-05-05T18:01:06.349Z,101702.91
2023-05-05T18:03:32.930Z,101698.44
2023-05-05T18:05:59.414Z,101707.66
2023-05-05T18:08:25.779Z,101699.84
2023-05-05T18:10:53.894Z,101705.56
2023-05-05T18:13:21.294Z,101708.25
2023-05-05T18:15:47.786Z,101712.63
2023-05-05T18:18:14.230Z,101707.47
2023-05-05T18:20:40.934Z,101702.78
2023-05-05T18:23:07.335Z,101703.53
2023-05-05T18:28:15.967Z,101689.25
2023-05-05T18:30:42.584Z,101696.88
2023-05-05T18:35:51.050Z,101710.06
2023-05-05T18:40:52.721Z,101706.81
2023-05-05T18:43:19.081Z,101708.31
2023-05-05T18:45:45.588Z,101714.47
2023-05-05T18:48:12.157Z,101722.34
2023-05-05T18:50:38.617Z,101717.97
2023-05-05T18:53:05.026Z,101718.00
2023-05-05T18:55:31.600Z,101719.31
2023-05-05T18:57:58.199Z,101722.25
2023-05-05T19:00:24.867Z,101722.59
2023-05-05T19:02:51.492Z,101720.16
2023-05-05T19:05:18.126Z,101717.47
2023-05-05T19:07:45.230Z,101723.53
2023-05-05T19:10:11.783Z,101718.75
2023-05-05T19:12:38.221Z,101732.78
2023-05-05T19:15:04.908Z,101725.31
2023-05-05T19:17:32.646Z,101726.41
2023-05-05T19:19:59.140Z,101731.50
2023-05-05T19:22:25.652Z,101730.25
2023-05-05T19:24:52.047Z,101737.41
2023-05-05T19:27:18.477Z,101740.16
2023-05-05T19:29:45.221Z,101742.25
2023-05-05T19:32:11.727Z,101739.66
2023-05-05T19:34:38.649Z,101745.91
2023-05-05T19:37:05.400Z,101743.88
2023-05-05T19:39:31.882Z,101748.56
2023-05-05T19:41:58.882Z,101755.28
2023-05-05T19:44:25.327Z,101756.59
2023-05-05T19:46:53.028Z,101751.75
2023-05-05T19:49:19.566Z,101755.00
2023-05-05T19:51:49.894Z,101764.53
2023-05-05T19:54:16.449Z,101757.56
2023-05-05T19:56:42.913Z,101753.59
2023-05-05T19:59:09.568Z,101759.81
2023-05-05T20:01:36.177Z,101761.47
2023-05-05T20:04:05.564Z,101757.13
2023-05-05T20:06:32.654Z,101750.56
2023-05-05T20:08:59.364Z,101759.78
2023-05-05T20:11:25.951Z,101762.94
2023-05-05T20:13:53.117Z,101759.66
2023-05-05T20:16:21.481Z,101763.66
2023-05-05T20:18:48.135Z,101761.19
2023-05-05T20:21:15.029Z,101757.06
2023-05-05T20:23:42.758Z,101752.78
2023-05-05T20:26:09.420Z,101763.34
2023-05-05T20:28:35.920Z,101755.91
2023-05-05T20:31:02.314Z,101766.44
2023-05-05T20:33:29.096Z,101775.66
2023-05-05T20:35:55.566Z,101773.88
2023-05-05T20:38:21.935Z,101772.63
2023-05-05T20:40:48.341Z,101772.63
2023-05-05T20:43:14.805Z,101773.44
2023-05-05T20:45:41.195Z,101771.41
2023-05-05T20:48:11.003Z,101770.94
2023-05-05T20:50:41.383Z,101765.38
2023-05-05T20:53:08.892Z,101763.22
2023-05-05T20:55:35.605Z,101764.28
2023-05-05T20:58:02.078Z,101759.72
2023-05-05T21:00:28.423Z,101759.47
2023-05-05T21:02:56.768Z,101761.34
2023-05-05T21:05:23.653Z,101758.75
2023-05-05T21:07:50.237Z,101756.81
2023-05-05T21:10:16.600Z,101761.28
2023-05-05T21:12:43.078Z,101754.78
2023-05-05T21:15:10.548Z,101755.38
2023-05-05T21:17:37.050Z,101757.06
2023-05-05T21:20:03.870Z,101756.31
2023-05-05T21:22:30.291Z,101755.03
2023-05-05T21:25:12.496Z,101755.03
2023-05-05T21:27:38.974Z,101764.44
2023-05-05T21:30:07.746Z,101758.44
2023-05-05T21:32:36.001Z,101748.66
2023-05-05T21:35:03.102Z,101758.19
2023-05-05T21:37:29.418Z,101753.53
2023-05-05T21:39:55.764Z,101756.78
2023-05-05T21:42:22.278Z,101753.53
2023-05-05T21:44:48.821Z,101752.81
2023-05-05T21:47:16.197Z,101758.94
2023-05-05T21:49:42.627Z,101756.34
2023-05-05T21:52:09.015Z,101751.84
2023-05-05T21:54:35.810Z,101756.19
2023-05-05T21:57:02.770Z,101749.47
2023-05-05T21:59:29.163Z,101752.81
2023-05-05T22:01:55.597Z,101750.69
2023-05-05T22:04:22.203Z,101751.16
2023-05-05T22:06:48.570Z,101752.59
2023-05-05T22:09:14.960Z,101751.31
2023-05-05T22:11:41.351Z,101747.63
2023-05-05T22:14:07.906Z,101747.84
2023-05-05T22:16:34.314Z,101747.09
2023-05-05T22:19:00.865Z,101744.53
2023-05-05T22:21:27.761Z,101757.47
2023-05-05T22:23:54.102Z,101759.59
2023-05-05T22:26:20.613Z,101761.22
2023-05-05T22:28:46.961Z,101762.31
2023-05-05T22:31:13.461Z,101755.38
2023-05-05T22:33:39.870Z,101760.03
2023-05-05T22:36:06.670Z,101754.09
2023-05-05T22:38:32.992Z,101752.22
2023-05-05T22:40:59.310Z,101760.94
2023-05-05T22:43:25.735Z,101761.31
2023-05-05T22:45:52.131Z,101753.78
2023-05-05T22:48:18.438Z,101753.78
2023-05-05T22:50:45.560Z,101755.47
2023-05-05T22:53:11.900Z,101753.72
2023-05-05T22:55:38.236Z,101750.38
2023-05-05T22:58:04.827Z,101746.34
2023-05-05T23:00:31.361Z,101746.34
2023-05-05T23:02:57.781Z,101750.88
2023-05-05T23:05:24.252Z,101750.78
2023-05-05T23:07:50.744Z,101749.66
2023-05-05T23:10:17.161Z,101746.25
2023-05-05T23:12:43.554Z,101753.13
2023-05-05T23:15:10.698Z,101737.44
2023-05-05T23:17:37.412Z,101749.38
2023-05-05T23:20:04.361Z,101745.28
2023-05-05T23:22:30.787Z,101742.88
2023-05-05T23:24:57.156Z,101748.44
2023-05-05T23:27:23.666Z,101748.56
2023-05-05T23:29:50.030Z,101741.63
2023-05-05T23:32:16.473Z,101734.03
2023-05-05T23:34:42.795Z,101741.91
2023-05-05T23:37:09.146Z,101747.09
2023-05-05T23:39:35.596Z,101735.47
2023-05-05T23:42:01.992Z,101737.53
2023-05-05T23:44:28.382Z,101737.22
2023-05-05T23:46:54.793Z,101740.69
2023-05-05T23:49:21.243Z,101731.63
2023-05-05T23:51:47.630Z,101737.03
2023-05-05T23:54:14.005Z,101732.47
2023-05-05T23:56:41.079Z,101721.19
2023-05-05T23:59:07.432Z,101729.47
